sensor_id;sensor_type;location;lat;lon;timestamp;pressure;altitude;pressure_sealevel;temperature;humidity
16094;BME280;8151;47.824;12.092;2023-08-01T00:01:18;95570.22;;;21.52;56.80
16094;BME280;8151;47.824;12.092;2023-08-01T00:03:46;95567.53;;;21.52;57.04
16094;BME280;8151;47.824;12.092;2023-08-01T00:06:15;95566.53;;;21.58;57.28
16094;BME280;8151;47.824;12.092;2023-08-01T00:08:43;95568.94;;;21.59;58.33
16094;BME280;8151;47.824;12.092;2023-08-01T00:11:22;95562.19;;;21.57;58.71
16094;BME280;8151;47.824;12.092;2023-08-01T00:13:51;95561.38;;;21.56;59.20
16094;BME280;8151;47.824;12.092;2023-08-01T00:16:19;95556.03;;;21.61;59.17
16094;BME280;8151;47.824;12.092;2023-08-01T00:18:47;95561.16;;;21.63;59.44
16094;BME280;8151;47.824;12.092;2023-08-01T00:21:16;95566.78;;;21.61;59.19
16094;BME280;8151;47.824;12.092;2023-08-01T00:23:45;95561.41;;;21.61;58.96
16094;BME280;8151;47.824;12.092;2023-08-01T00:26:13;95559.31;;;21.63;59.03
16094;BME280;8151;47.824;12.092;2023-08-01T00:28:43;95574.03;;;21.56;59.53
16094;BME280;8151;47.824;12.092;2023-08-01T00:31:11;95575.59;;;21.52;60.20
16094;BME280;8151;47.824;12.092;2023-08-01T00:33:40;95563.19;;;21.46;60.93
16094;BME280;8151;47.824;12.092;2023-08-01T00:36:08;95559.97;;;21.49;60.97
16094;BME280;8151;47.824;12.092;2023-08-01T00:38:38;95539.25;;;21.49;60.36
16094;BME280;8151;47.824;12.092;2023-08-01T00:41:08;95528.44;;;21.44;60.34
16094;BME280;8151;47.824;12.092;2023-08-01T00:43:36;95512.75;;;21.36;60.63
16094;BME280;8151;47.824;12.092;2023-08-01T00:46:07;95500.56;;;21.23;60.97
16094;BME280;8151;47.824;12.092;2023-08-01T00:48:36;95508.53;;;21.13;61.04
16094;BME280;8151;47.824;12.092;2023-08-01T00:51:05;95497.75;;;21.08;61.21
16094;BME280;8151;47.824;12.092;2023-08-01T00:53:35;95487.69;;;20.98;61.43
16094;BME280;8151;47.824;12.092;2023-08-01T00:56:05;95476.03;;;20.87;61.74
16094;BME280;8151;47.824;12.092;2023-08-01T00:58:43;95461.41;;;20.78;61.97
16094;BME280;8151;47.824;12.092;2023-08-01T01:01:13;95460.56;;;20.72;62.25
16094;BME280;8151;47.824;12.092;2023-08-01T01:03:41;95448.97;;;20.67;62.70
16094;BME280;8151;47.824;12.092;2023-08-01T01:06:14;95452.66;;;20.60;62.75
16094;BME280;8151;47.824;12.092;2023-08-01T01:08:44;95460.09;;;20.53;63.07
16094;BME280;8151;47.824;12.092;2023-08-01T01:11:13;95455.69;;;20.42;63.08
16094;BME280;8151;47.824;12.092;2023-08-01T01:13:41;95455.59;;;20.32;63.54
16094;BME280;8151;47.824;12.092;2023-08-01T01:16:10;95454.16;;;20.24;63.73
16094;BME280;8151;47.824;12.092;2023-08-01T01:18:40;95452.44;;;20.18;63.90
16094;BME280;8151;47.824;12.092;2023-08-01T01:21:25;95434.66;;;20.12;64.59
16094;BME280;8151;47.824;12.092;2023-08-01T01:23:55;95440.78;;;20.07;64.20
16094;BME280;8151;47.824;12.092;2023-08-01T01:26:24;95440.47;;;20.03;64.14
16094;BME280;8151;47.824;12.092;2023-08-01T01:28:54;95424.84;;;20.00;64.12
16094;BME280;8151;47.824;12.092;2023-08-01T01:31:23;95418.19;;;20.03;63.74
16094;BME280;8151;47.824;12.092;2023-08-01T01:33:54;95424.94;;;20.05;63.63
16094;BME280;8151;47.824;12.092;2023-08-01T01:36:23;95420.13;;;20.08;63.42
16094;BME280;8151;47.824;12.092;2023-08-01T01:38:53;95420.13;;;20.08;63.55
16094;BME280;8151;47.824;12.092;2023-08-01T01:41:21;95415.31;;;20.10;63.64
16094;BME280;8151;47.824;12.092;2023-08-01T01:43:50;95420.66;;;20.10;63.88
16094;BME280;8151;47.824;12.092;2023-08-01T01:46:19;95418.22;;;20.08;63.82
16094;BME280;8151;47.824;12.092;2023-08-01T01:48:47;95403.75;;;20.09;63.62
16094;BME280;8151;47.824;12.092;2023-08-01T01:51:16;95389.78;;;20.07;63.67
16094;BME280;8151;47.824;12.092;2023-08-01T01:53:44;95399.50;;;20.13;63.41
16094;BME280;8151;47.824;12.092;2023-08-01T01:56:14;95386.63;;;20.15;63.36
16094;BME280;8151;47.824;12.092;2023-08-01T01:58:43;95379.94;;;20.18;63.40
16094;BME280;8151;47.824;12.092;2023-08-01T02:01:11;95364.91;;;20.17;63.53
16094;BME280;8151;47.824;12.092;2023-08-01T02:03:40;95357.88;;;20.16;63.84
16094;BME280;8151;47.824;12.092;2023-08-01T02:06:08;95354.41;;;20.15;64.03
16094;BME280;8151;47.824;12.092;2023-08-01T02:08:37;95364.66;;;20.18;64.02
16094;BME280;8151;47.824;12.092;2023-08-01T02:11:05;95358.19;;;20.19;63.99
16094;BME280;8151;47.824;12.092;2023-08-01T02:13:35;95357.41;;;20.19;64.20
16094;BME280;8151;47.824;12.092;2023-08-01T02:16:13;95352.84;;;20.19;64.04
16094;BME280;8151;47.824;12.092;2023-08-01T02:18:52;95341.53;;;20.17;64.13
16094;BME280;8151;47.824;12.092;2023-08-01T02:21:20;95350.38;;;20.18;64.41
16094;BME280;8151;47.824;12.092;2023-08-01T02:23:49;95325.66;;;20.16;64.34
16094;BME280;8151;47.824;12.092;2023-08-01T02:26:17;95338.28;;;20.15;64.38
16094;BME280;8151;47.824;12.092;2023-08-01T02:28:47;95340.41;;;20.13;64.54
16094;BME280;8151;47.824;12.092;2023-08-01T02:31:15;95342.56;;;20.11;64.62
16094;BME280;8151;47.824;12.092;2023-08-01T02:33:44;95339.81;;;20.06;64.65
16094;BME280;8151;47.824;12.092;2023-08-01T02:36:12;95363.66;;;20.02;64.91
16094;BME280;8151;47.824;12.092;2023-08-01T02:38:40;95337.56;;;19.98;65.23
16094;BME280;8151;47.824;12.092;2023-08-01T02:41:09;95317.69;;;19.94;65.39
16094;BME280;8151;47.824;12.092;2023-08-01T02:43:37;95303.94;;;19.90;65.64
16094;BME280;8151;47.824;12.092;2023-08-01T02:46:07;95305.03;;;19.89;65.96
16094;BME280;8151;47.824;12.092;2023-08-01T02:48:36;95304.44;;;19.87;65.97
16094;BME280;8151;47.824;12.092;2023-08-01T02:51:04;95313.00;;;19.84;66.26
16094;BME280;8151;47.824;12.092;2023-08-01T02:53:36;95305.44;;;19.81;66.55
16094;BME280;8151;47.824;12.092;2023-08-01T02:56:07;95300.34;;;19.79;66.56
16094;BME280;8151;47.824;12.092;2023-08-01T02:58:37;95303.84;;;19.80;66.68
16094;BME280;8151;47.824;12.092;2023-08-01T03:01:08;95296.84;;;19.79;66.67
16094;BME280;8151;47.824;12.092;2023-08-01T03:03:37;95312.22;;;19.83;66.66
16094;BME280;8151;47.824;12.092;2023-08-01T03:06:06;95311.66;;;19.81;66.88
16094;BME280;8151;47.824;12.092;2023-08-01T03:08:35;95296.28;;;19.77;67.01
16094;BME280;8151;47.824;12.092;2023-08-01T03:11:03;95296.53;;;19.75;67.28
16094;BME280;8151;47.824;12.092;2023-08-01T03:13:31;95297.84;;;19.73;67.88
16094;BME280;8151;47.824;12.092;2023-08-01T03:16:00;95309.88;;;19.70;68.24
16094;BME280;8151;47.824;12.092;2023-08-01T03:18:31;95289.72;;;19.67;68.36
16094;BME280;8151;47.824;12.092;2023-08-01T03:20:59;95297.50;;;19.69;68.61
16094;BME280;8151;47.824;12.092;2023-08-01T03:23:31;95268.81;;;19.70;68.69
16094;BME280;8151;47.824;12.092;2023-08-01T03:25:59;95272.31;;;19.70;68.91
16094;BME280;8151;47.824;12.092;2023-08-01T03:28:27;95278.97;;;19.67;69.06
16094;BME280;8151;47.824;12.092;2023-08-01T03:30:56;95275.50;;;19.67;69.25
16094;BME280;8151;47.824;12.092;2023-08-01T03:33:32;95278.97;;;19.67;69.49
16094;BME280;8151;47.824;12.092;2023-08-01T03:36:01;95272.50;;;19.63;69.58
16094;BME280;8151;47.824;12.092;2023-08-01T03:38:31;95269.50;;;19.60;69.71
16094;BME280;8151;47.824;12.092;2023-08-01T03:40:59;95271.63;;;19.58;69.95
16094;BME280;8151;47.824;12.092;2023-08-01T03:43:28;95269.72;;;19.53;69.88
16094;BME280;8151;47.824;12.092;2023-08-01T03:45:56;95268.91;;;19.53;70.01
16094;BME280;8151;47.824;12.092;2023-08-01T03:48:25;95260.31;;;19.51;69.94
16094;BME280;8151;47.824;12.092;2023-08-01T03:50:55;95266.16;;;19.47;70.26
16094;BME280;8151;47.824;12.092;2023-08-01T03:53:27;95277.97;;;19.46;70.07
16094;BME280;8151;47.824;12.092;2023-08-01T03:55:56;95283.31;;;19.46;69.98
16094;BME280;8151;47.824;12.092;2023-08-01T03:58:24;95285.69;;;19.43;70.03
16094;BME280;8151;47.824;12.092;2023-08-01T04:00:53;95278.47;;;19.43;69.92
16094;BME280;8151;47.824;12.092;2023-08-01T04:03:22;95275.00;;;19.48;69.89
16094;BME280;8151;47.824;12.092;2023-08-01T04:05:50;95278.25;;;19.50;69.75
16094;BME280;8151;47.824;12.092;2023-08-01T04:08:20;95285.56;;;19.55;69.89
16094;BME280;8151;47.824;12.092;2023-08-01T04:10:49;95285.56;;;19.55;70.26
16094;BME280;8151;47.824;12.092;2023-08-01T04:13:17;95279.41;;;19.54;70.02
16094;BME280;8151;47.824;12.092;2023-08-01T04:15:46;95280.19;;;19.55;70.11
16094;BME280;8151;47.824;12.092;2023-08-01T04:18:15;95284.47;;;19.56;70.14
16094;BME280;8151;47.824;12.092;2023-08-01T04:20:43;95292.81;;;19.54;70.44
16094;BME280;8151;47.824;12.092;2023-08-01T04:23:11;95290.94;;;19.55;70.70
16094;BME280;8151;47.824;12.092;2023-08-01T04:25:42;95291.41;;;19.52;70.76
16094;BME280;8151;47.824;12.092;2023-08-01T04:28:11;95295.19;;;19.51;71.01
16094;BME280;8151;47.824;12.092;2023-08-01T04:30:39;95298.66;;;19.51;70.87
16094;BME280;8151;47.824;12.092;2023-08-01T04:33:07;95302.94;;;19.52;70.88
16094;BME280;8151;47.824;12.092;2023-08-01T04:35:36;95295.19;;;19.51;70.87
16094;BME280;8151;47.824;12.092;2023-08-01T04:38:04;95309.88;;;19.48;70.99
16094;BME280;8151;47.824;12.092;2023-08-01T04:40:33;95311.53;;;19.49;71.03
16094;BME280;8151;47.824;12.092;2023-08-01T04:43:03;95323.56;;;19.46;71.21
16094;BME280;8151;47.824;12.092;2023-08-01T04:45:31;95336.66;;;19.43;71.33
16094;BME280;8151;47.824;12.092;2023-08-01T04:48:00;95340.41;;;19.42;71.48
16094;BME280;8151;47.824;12.092;2023-08-01T04:50:28;95330.47;;;19.42;71.84
16094;BME280;8151;47.824;12.092;2023-08-01T04:52:57;95328.66;;;19.48;71.86
16094;BME280;8151;47.824;12.092;2023-08-01T04:55:25;95333.28;;;19.53;71.68
16094;BME280;8151;47.824;12.092;2023-08-01T04:57:54;95314.50;;;19.53;71.60
16094;BME280;8151;47.824;12.092;2023-08-01T05:00:23;95327.84;;;19.47;72.03
16094;BME280;8151;47.824;12.092;2023-08-01T05:02:52;95337.78;;;19.47;72.23
16094;BME280;8151;47.824;12.092;2023-08-01T05:05:20;95343.94;;;19.47;72.59
16094;BME280;8151;47.824;12.092;2023-08-01T05:07:49;95355.69;;;19.41;72.77
16094;BME280;8151;47.824;12.092;2023-08-01T05:10:17;95357.81;;;19.39;73.36
16094;BME280;8151;47.824;12.092;2023-08-01T05:12:46;95366.97;;;19.43;73.50
16094;BME280;8151;47.824;12.092;2023-08-01T05:15:14;95368.91;;;19.48;73.41
16094;BME280;8151;47.824;12.092;2023-08-01T05:17:44;95380.75;;;19.52;73.69
16094;BME280;8151;47.824;12.092;2023-08-01T05:20:13;95375.97;;;19.54;73.80
16094;BME280;8151;47.824;12.092;2023-08-01T05:22:41;95363.16;;;19.61;73.51
16094;BME280;8151;47.824;12.092;2023-08-01T05:25:10;95371.03;;;19.68;73.56
16094;BME280;8151;47.824;12.092;2023-08-01T05:27:38;95364.47;;;19.76;73.33
16094;BME280;8151;47.824;12.092;2023-08-01T05:30:08;95366.63;;;19.79;73.16
16094;BME280;8151;47.824;12.092;2023-08-01T05:32:36;95378.19;;;19.79;73.30
16094;BME280;8151;47.824;12.092;2023-08-01T05:35:08;95375.78;;;19.83;73.64
16094;BME280;8151;47.824;12.092;2023-08-01T05:37:37;95365.38;;;19.86;73.53
16094;BME280;8151;47.824;12.092;2023-08-01T05:40:07;95356.59;;;19.91;73.45
16094;BME280;8151;47.824;12.092;2023-08-01T05:42:35;95360.13;;;19.97;72.85
16094;BME280;8151;47.824;12.092;2023-08-01T05:45:04;95367.09;;;19.98;73.29
16094;BME280;8151;47.824;12.092;2023-08-01T05:47:33;95366.88;;;19.99;73.00
16094;BME280;8151;47.824;12.092;2023-08-01T05:50:01;95374.97;;;20.04;73.02
16094;BME280;8151;47.824;12.092;2023-08-01T05:52:31;95370.41;;;20.05;73.13
16094;BME280;8151;47.824;12.092;2023-08-01T05:55:07;95380.03;;;20.01;73.13
16094;BME280;8151;47.824;12.092;2023-08-01T05:57:36;95365.75;;;19.95;73.05
16094;BME280;8151;47.824;12.092;2023-08-01T06:00:05;95361.41;;;19.89;73.37
16094;BME280;8151;47.824;12.092;2023-08-01T06:02:34;95368.25;;;19.80;73.33
16094;BME280;8151;47.824;12.092;2023-08-01T06:05:03;95369.50;;;19.72;73.67
16094;BME280;8151;47.824;12.092;2023-08-01T06:07:33;95361.13;;;19.68;73.78
16094;BME280;8151;47.824;12.092;2023-08-01T06:10:02;95346.91;;;19.68;73.87
16094;BME280;8151;47.824;12.092;2023-08-01T06:12:31;95354.94;;;19.68;74.07
16094;BME280;8151;47.824;12.092;2023-08-01T06:14:59;95346.59;;;19.64;74.22
16094;BME280;8151;47.824;12.092;2023-08-01T06:17:28;95352.44;;;19.61;74.44
16094;BME280;8151;47.824;12.092;2023-08-01T06:19:56;95373.59;;;19.58;74.88
16094;BME280;8151;47.824;12.092;2023-08-01T06:22:25;95370.84;;;19.53;74.91
16094;BME280;8151;47.824;12.092;2023-08-01T06:24:55;95351.75;;;19.49;75.19
16094;BME280;8151;47.824;12.092;2023-08-01T06:27:23;95353.88;;;19.47;75.35
16094;BME280;8151;47.824;12.092;2023-08-01T06:29:52;95354.13;;;19.45;75.75
16094;BME280;8151;47.824;12.092;2023-08-01T06:32:20;95341.78;;;19.44;75.76
16094;BME280;8151;47.824;12.092;2023-08-01T06:34:49;95343.16;;;19.47;76.08
16094;BME280;8151;47.824;12.092;2023-08-01T06:37:17;95338.34;;;19.49;75.96
16094;BME280;8151;47.824;12.092;2023-08-01T06:39:52;95350.44;;;19.52;75.88
16094;BME280;8151;47.824;12.092;2023-08-01T06:42:21;95335.09;;;19.47;76.13
16094;BME280;8151;47.824;12.092;2023-08-01T06:44:50;95343.31;;;19.40;76.49
16094;BME280;8151;47.824;12.092;2023-08-01T06:47:18;95351.56;;;19.34;76.97
16094;BME280;8151;47.824;12.092;2023-08-01T06:49:47;95350.44;;;19.30;77.35
16094;BME280;8151;47.824;12.092;2023-08-01T06:52:15;95349.63;;;19.29;77.33
16094;BME280;8151;47.824;12.092;2023-08-01T06:54:44;95342.41;;;19.30;77.30
16094;BME280;8151;47.824;12.092;2023-08-01T06:57:12;95334.91;;;19.32;77.46
16094;BME280;8151;47.824;12.092;2023-08-01T06:59:42;95323.09;;;19.33;77.56
16094;BME280;8151;47.824;12.092;2023-08-01T07:02:11;95321.81;;;19.35;77.47
16094;BME280;8151;47.824;12.092;2023-08-01T07:04:39;95315.13;;;19.38;77.50
16094;BME280;8151;47.824;12.092;2023-08-01T07:07:08;95311.97;;;19.41;77.63
16094;BME280;8151;47.824;12.092;2023-08-01T07:09:37;95306.09;;;19.44;77.79
16094;BME280;8151;47.824;12.092;2023-08-01T07:12:06;95300.72;;;19.44;77.92
16094;BME280;8151;47.824;12.092;2023-08-01T07:14:35;95308.03;;;19.48;77.95
16094;BME280;8151;47.824;12.092;2023-08-01T07:17:05;95302.47;;;19.55;77.93
16094;BME280;8151;47.824;12.092;2023-08-01T07:19:34;95306.78;;;19.56;77.80
16094;BME280;8151;47.824;12.092;2023-08-01T07:22:03;95305.38;;;19.54;77.96
16094;BME280;8151;47.824;12.092;2023-08-01T07:24:31;95304.28;;;19.50;77.85
16094;BME280;8151;47.824;12.092;2023-08-01T07:26:59;95304.78;;;19.46;78.13
16094;BME280;8151;47.824;12.092;2023-08-01T07:29:28;95288.69;;;19.46;78.03
16094;BME280;8151;47.824;12.092;2023-08-01T07:31:56;95289.81;;;19.51;78.01
16094;BME280;8151;47.824;12.092;2023-08-01T07:34:26;95279.94;;;19.56;77.77
16094;BME280;8151;47.824;12.092;2023-08-01T07:36:55;95275.69;;;19.60;77.53
16094;BME280;8151;47.824;12.092;2023-08-01T07:39:23;95271.13;;;19.61;77.46
16094;BME280;8151;47.824;12.092;2023-08-01T07:41:52;95284.25;;;19.57;77.55
16094;BME280;8151;47.824;12.092;2023-08-01T07:44:20;95287.69;;;19.53;77.63
16094;BME280;8151;47.824;12.092;2023-08-01T07:46:48;95296.47;;;19.48;77.89
16094;BME280;8151;47.824;12.092;2023-08-01T07:49:17;95302.03;;;19.41;77.97
16094;BME280;8151;47.824;12.092;2023-08-01T07:51:47;95295.56;;;19.37;78.15
16094;BME280;8151;47.824;12.092;2023-08-01T07:54:15;95301.41;;;19.34;78.29
16094;BME280;8151;47.824;12.092;2023-08-01T07:56:44;95290.63;;;19.29;78.46
16094;BME280;8151;47.824;12.092;2023-08-01T07:59:15;95266.44;;;19.24;78.61
16094;BME280;8151;47.824;12.092;2023-08-01T08:01:44;95272.56;;;19.19;78.67
16094;BME280;8151;47.824;12.092;2023-08-01T08:04:12;95270.59;;;19.15;78.70
16094;BME280;8151;47.824;12.092;2023-08-01T08:06:41;95266.34;;;19.19;78.92
16094;BME280;8151;47.824;12.092;2023-08-01T08:09:11;95263.75;;;19.24;78.96
16094;BME280;8151;47.824;12.092;2023-08-01T08:11:39;95264.38;;;19.31;78.82
16094;BME280;8151;47.824;12.092;2023-08-01T08:14:08;95265.25;;;19.37;78.62
16094;BME280;8151;47.824;12.092;2023-08-01T08:16:38;95267.16;;;19.41;78.39
16094;BME280;8151;47.824;12.092;2023-08-01T08:19:07;95258.63;;;19.44;78.12
16094;BME280;8151;47.824;12.092;2023-08-01T08:21:36;95250.63;;;19.50;77.95
16094;BME280;8151;47.824;12.092;2023-08-01T08:24:04;95253.06;;;19.51;77.97
16094;BME280;8151;47.824;12.092;2023-08-01T08:26:34;95244.25;;;19.56;78.00
16094;BME280;8151;47.824;12.092;2023-08-01T08:29:11;95246.44;;;19.59;77.76
16094;BME280;8151;47.824;12.092;2023-08-01T08:31:40;95254.00;;;19.62;77.75
16094;BME280;8151;47.824;12.092;2023-08-01T08:34:08;95252.41;;;19.66;77.74
16094;BME280;8151;47.824;12.092;2023-08-01T08:36:37;95267.19;;;19.68;77.72
16094;BME280;8151;47.824;12.092;2023-08-01T08:39:06;95275.59;;;19.72;77.75
16094;BME280;8151;47.824;12.092;2023-08-01T08:41:38;95251.19;;;19.74;77.79
16094;BME280;8151;47.824;12.092;2023-08-01T08:44:07;95251.22;;;19.79;77.98
16094;BME280;8151;47.824;12.092;2023-08-01T08:46:41;95233.25;;;19.79;77.99
16094;BME280;8151;47.824;12.092;2023-08-01T08:49:21;95228.69;;;19.80;78.22
16094;BME280;8151;47.824;12.092;2023-08-01T08:51:49;95225.75;;;19.81;78.15
16094;BME280;8151;47.824;12.092;2023-08-01T08:54:19;95221.75;;;19.84;78.05
16094;BME280;8151;47.824;12.092;2023-08-01T08:56:50;95220.19;;;19.88;78.02
16094;BME280;8151;47.824;12.092;2023-08-01T08:59:19;95211.88;;;19.90;78.06
16094;BME280;8151;47.824;12.092;2023-08-01T09:01:49;95199.00;;;19.92;78.10
16094;BME280;8151;47.824;12.092;2023-08-01T09:04:17;95202.75;;;19.91;78.07
16094;BME280;8151;47.824;12.092;2023-08-01T09:06:49;95193.59;;;19.86;78.26
16094;BME280;8151;47.824;12.092;2023-08-01T09:09:18;95192.72;;;19.81;78.49
16094;BME280;8151;47.824;12.092;2023-08-01T09:11:52;95182.53;;;19.78;78.66
16094;BME280;8151;47.824;12.092;2023-08-01T09:14:22;95186.25;;;19.77;78.84
16094;BME280;8151;47.824;12.092;2023-08-01T09:16:51;95202.34;;;19.77;78.79
16094;BME280;8151;47.824;12.092;2023-08-01T09:19:21;95185.69;;;19.75;78.72
16094;BME280;8151;47.824;12.092;2023-08-01T09:21:52;95192.94;;;19.74;78.96
16094;BME280;8151;47.824;12.092;2023-08-01T09:24:21;95182.47;;;19.73;78.69
16094;BME280;8151;47.824;12.092;2023-08-01T09:26:50;95191.31;;;19.73;78.96
16094;BME280;8151;47.824;12.092;2023-08-01T09:29:20;95185.16;;;19.73;79.23
16094;BME280;8151;47.824;12.092;2023-08-01T09:31:49;95194.28;;;19.72;79.19
16094;BME280;8151;47.824;12.092;2023-08-01T09:34:19;95184.81;;;19.69;79.34
16094;BME280;8151;47.824;12.092;2023-08-01T09:36:48;95184.00;;;19.68;79.40
16094;BME280;8151;47.824;12.092;2023-08-01T09:39:17;95166.81;;;19.70;79.33
16094;BME280;8151;47.824;12.092;2023-08-01T09:41:46;95164.47;;;19.73;79.14
16094;BME280;8151;47.824;12.092;2023-08-01T09:44:25;95163.97;;;19.76;79.23
16094;BME280;8151;47.824;12.092;2023-08-01T09:46:58;95166.72;;;19.81;79.00
16094;BME280;8151;47.824;12.092;2023-08-01T09:49:27;95166.75;;;19.86;79.26
16094;BME280;8151;47.824;12.092;2023-08-01T09:51:56;95164.91;;;19.92;78.78
16094;BME280;8151;47.824;12.092;2023-08-01T09:54:25;95150.44;;;19.98;78.70
16094;BME280;8151;47.824;12.092;2023-08-01T09:56:54;95149.41;;;20.04;78.43
16094;BME280;8151;47.824;12.092;2023-08-01T09:59:26;95154.53;;;20.06;78.42
16094;BME280;8151;47.824;12.092;2023-08-01T10:01:55;95155.09;;;20.08;78.39
16094;BME280;8151;47.824;12.092;2023-08-01T10:04:27;95152.69;;;20.06;78.40
16094;BME280;8151;47.824;12.092;2023-08-01T10:06:58;95157.22;;;20.06;78.24
16094;BME280;8151;47.824;12.092;2023-08-01T10:09:27;95170.91;;;20.04;78.23
16094;BME280;8151;47.824;12.092;2023-08-01T10:11:58;95165.03;;;20.08;78.22
16094;BME280;8151;47.824;12.092;2023-08-01T10:14:29;95166.13;;;20.12;78.18
16094;BME280;8151;47.824;12.092;2023-08-01T10:16:58;95177.41;;;20.14;77.97
16094;BME280;8151;47.824;12.092;2023-08-01T10:19:27;95166.94;;;20.12;77.86
16094;BME280;8151;47.824;12.092;2023-08-01T10:22:00;95172.88;;;20.14;77.94
16094;BME280;8151;47.824;12.092;2023-08-01T10:24:29;95176.13;;;20.16;78.00
16094;BME280;8151;47.824;12.092;2023-08-01T10:27:10;95200.56;;;20.20;77.84
16094;BME280;8151;47.824;12.092;2023-08-01T10:29:41;95183.94;;;20.23;77.75
16094;BME280;8151;47.824;12.092;2023-08-01T10:32:10;95193.94;;;20.33;77.43
16094;BME280;8151;47.824;12.092;2023-08-01T10:34:38;95201.00;;;20.44;77.42
16094;BME280;8151;47.824;12.092;2023-08-01T10:37:07;95213.44;;;20.55;77.14
16094;BME280;8151;47.824;12.092;2023-08-01T10:39:35;95219.94;;;20.64;76.73
16094;BME280;8151;47.824;12.092;2023-08-01T10:42:04;95225.69;;;20.78;76.59
16094;BME280;8151;47.824;12.092;2023-08-01T10:44:46;95224.66;;;20.90;76.50
16094;BME280;8151;47.824;12.092;2023-08-01T10:47:25;95239.56;;;21.08;76.24
16094;BME280;8151;47.824;12.092;2023-08-01T10:49:53;95234.78;;;21.30;75.90
16094;BME280;8151;47.824;12.092;2023-08-01T10:52:23;95241.06;;;21.46;75.47
16094;BME280;8151;47.824;12.092;2023-08-01T10:54:58;95245.91;;;21.49;75.54
16094;BME280;8151;47.824;12.092;2023-08-01T10:57:28;95252.63;;;21.52;75.65
16094;BME280;8151;47.824;12.092;2023-08-01T10:59:58;95255.91;;;21.59;75.74
16094;BME280;8151;47.824;12.092;2023-08-01T11:02:34;95257.53;;;21.70;75.46
16094;BME280;8151;47.824;12.092;2023-08-01T11:05:05;95264.56;;;21.81;75.23
16094;BME280;8151;47.824;12.092;2023-08-01T11:07:34;95262.41;;;21.89;75.05
16094;BME280;8151;47.824;12.092;2023-08-01T11:10:07;95262.97;;;21.91;74.97
16094;BME280;8151;47.824;12.092;2023-08-01T11:12:37;95257.59;;;21.91;75.03
16094;BME280;8151;47.824;12.092;2023-08-01T11:15:08;95243.56;;;21.89;75.22
16094;BME280;8151;47.824;12.092;2023-08-01T11:17:48;95255.41;;;21.82;75.79
16094;BME280;8151;47.824;12.092;2023-08-01T11:20:19;95247.84;;;21.69;75.89
16094;BME280;8151;47.824;12.092;2023-08-01T11:22:51;95262.38;;;21.58;76.46
16094;BME280;8151;47.824;12.092;2023-08-01T11:25:31;95269.34;;;21.54;77.16
16094;BME280;8151;47.824;12.092;2023-08-01T11:28:11;95263.91;;;21.43;77.54
16094;BME280;8151;47.824;12.092;2023-08-01T11:30:41;95273.81;;;21.33;77.84
16094;BME280;8151;47.824;12.092;2023-08-01T11:33:14;95286.94;;;21.24;78.15
16094;BME280;8151;47.824;12.092;2023-08-01T11:35:42;95290.09;;;21.11;78.57
16094;BME280;8151;47.824;12.092;2023-08-01T11:38:11;95286.31;;;21.01;78.56
16094;BME280;8151;47.824;12.092;2023-08-01T11:40:40;95292.72;;;20.95;78.49
16094;BME280;8151;47.824;12.092;2023-08-01T11:43:11;95266.28;;;20.82;78.62
16094;BME280;8151;47.824;12.092;2023-08-01T11:45:49;95260.84;;;20.72;78.29
16094;BME280;8151;47.824;12.092;2023-08-01T11:48:18;95259.72;;;20.62;78.19
16094;BME280;8151;47.824;12.092;2023-08-01T11:50:47;95262.59;;;20.56;77.88
16094;BME280;8151;47.824;12.092;2023-08-01T11:53:19;95237.88;;;20.54;77.69
16094;BME280;8151;47.824;12.092;2023-08-01T11:55:49;95261.75;;;20.50;77.65
16094;BME280;8151;47.824;12.092;2023-08-01T11:58:28;95250.69;;;20.41;78.02
16094;BME280;8151;47.824;12.092;2023-08-01T12:01:09;95246.94;;;20.42;78.01
16094;BME280;8151;47.824;12.092;2023-08-01T12:03:45;95245.13;;;20.53;77.76
16094;BME280;8151;47.824;12.092;2023-08-01T12:06:14;95250.53;;;20.58;77.79
16094;BME280;8151;47.824;12.092;2023-08-01T12:08:44;95255.16;;;20.63;77.84
16094;BME280;8151;47.824;12.092;2023-08-01T12:11:22;95251.94;;;20.66;77.98
16094;BME280;8151;47.824;12.092;2023-08-01T12:14:01;95246.56;;;20.66;78.25
16094;BME280;8151;47.824;12.092;2023-08-01T12:16:32;95249.81;;;20.68;78.34
16094;BME280;8151;47.824;12.092;2023-08-01T12:19:00;95246.06;;;20.69;78.31
16094;BME280;8151;47.824;12.092;2023-08-01T12:21:29;95258.50;;;20.80;78.36
16094;BME280;8151;47.824;12.092;2023-08-01T12:23:58;95259.34;;;20.86;78.24
16094;BME280;8151;47.824;12.092;2023-08-01T12:26:26;95256.66;;;20.91;78.19
16094;BME280;8151;47.824;12.092;2023-08-01T12:28:55;95249.69;;;20.90;78.53
16094;BME280;8151;47.824;12.092;2023-08-01T12:31:24;95255.06;;;20.90;78.74
16094;BME280;8151;47.824;12.092;2023-08-01T12:33:54;95258.56;;;20.91;78.95
16094;BME280;8151;47.824;12.092;2023-08-01T12:36:23;95257.75;;;20.95;78.83
16094;BME280;8151;47.824;12.092;2023-08-01T12:38:51;95267.75;;;21.00;79.02
16094;BME280;8151;47.824;12.092;2023-08-01T12:41:19;95260.22;;;21.02;78.75
16094;BME280;8151;47.824;12.092;2023-08-01T12:43:48;95255.16;;;21.06;78.61
16094;BME280;8151;47.824;12.092;2023-08-01T12:46:16;95261.88;;;21.08;78.53
16094;BME280;8151;47.824;12.092;2023-08-01T12:48:45;95269.13;;;21.13;78.67
16094;BME280;8151;47.824;12.092;2023-08-01T12:51:25;95261.13;;;21.23;78.53
16094;BME280;8151;47.824;12.092;2023-08-01T12:53:54;95269.25;;;21.33;78.35
16094;BME280;8151;47.824;12.092;2023-08-01T12:56:22;95263.34;;;21.41;78.05
16094;BME280;8151;47.824;12.092;2023-08-01T12:58:50;95256.94;;;21.48;77.84
16094;BME280;8151;47.824;12.092;2023-08-01T13:01:19;95261.00;;;21.50;77.68
16094;BME280;8151;47.824;12.092;2023-08-01T13:03:48;95257.75;;;21.53;77.33
16094;BME280;8151;47.824;12.092;2023-08-01T13:06:16;95263.34;;;21.41;77.15
16094;BME280;8151;47.824;12.092;2023-08-01T13:08:46;95266.28;;;21.35;77.03
16094;BME280;8151;47.824;12.092;2023-08-01T13:11:15;95270.88;;;21.39;76.94
16094;BME280;8151;47.824;12.092;2023-08-01T13:13:44;95275.81;;;21.53;76.30